Time;durP1;ratioP1;P1;durP2;ratioP2;P2;SDS_P1;SDS_P2;PMS_P1;PMS_P2;Temp;Humidity;BMP_temperature;BMP_pressure;BME280_temperature;BME280_humidity;BME280_pressure;Samples;Min_cycle;Max_cycle;Signal;HPM_P1;HPM_P2
2022/06/02 00:01:43;;;;;;;11.85;10.27;;;9.60;99.90;;;;;;5094725;28;20035;-69
2022/06/02 00:04:18;;;;;;;11.95;10.18;;;9.70;99.90;;;;;;5095032;28;20127;-68
2022/06/02 00:06:44;;;;;;;12.10;10.40;;;;;;;;;;5095082;28;20073;-68
2022/06/02 00:09:32;;;;;;;16.65;11.35;;;9.70;99.90;;;;;;5112308;28;20471;-67
2022/06/02 00:12:24;;;;;;;13.02;11.45;;;9.70;99.90;;;;;;5113248;28;20126;-67
2022/06/02 00:15:01;;;;;;;13.18;10.02;;;9.60;99.90;;;;;;5094988;28;20501;-68
2022/06/02 00:17:46;;;;;;;11.43;9.95;;;9.50;99.90;;;;;;5112877;28;20035;-67
2022/06/02 00:20:26;;;;;;;12.77;9.77;;;9.50;99.90;;;;;;5112436;28;20039;-67
2022/06/02 00:23:21;;;;;;;12.25;10.73;;;9.40;99.90;;;;;;5094953;28;20489;-68
2022/06/02 00:26:01;;;;;;;11.88;10.50;;;9.40;99.90;;;;;;5112809;28;20084;-68
2022/06/02 00:28:37;;;;;;;11.85;9.98;;;9.60;99.90;;;;;;5113042;28;20058;-67
2022/06/02 00:31:14;;;;;;;15.55;10.43;;;9.40;99.90;;;;;;5093976;28;20043;-68
2022/06/02 00:34:27;;;;;;;12.52;10.82;;;9.50;99.90;;;;;;5113157;28;20498;-67
2022/06/02 00:37:19;;;;;;;13.88;9.95;;;9.50;99.90;;;;;;5085982;28;20053;-68
2022/06/02 00:39:47;;;;;;;11.85;10.02;;;9.50;99.90;;;;;;5062583;28;20504;-68
2022/06/02 00:42:35;;;;;;;13.50;11.05;;;9.40;99.90;;;;;;5094701;28;20035;-68
2022/06/02 00:45:09;;;;;;;13.30;10.45;;;9.30;99.90;;;;;;5094242;28;20379;-69
2022/06/02 00:47:51;;;;;;;14.30;11.50;;;9.30;99.90;;;;;;5100043;22;20489;-68
2022/06/02 00:50:32;;;;;;;12.82;11.10;;;9.20;99.90;;;;;;5030841;28;20076;-68
2022/06/02 00:53:19;;;;;;;11.75;10.00;;;9.30;99.90;;;;;;5014815;28;20037;-69
2022/06/02 00:59:23;;;;;;;12.75;11.13;;;9.30;99.90;;;;;;5013937;28;20046;-67
2022/06/02 01:01:49;;;;;;;12.30;10.32;;;9.20;99.90;;;;;;5032138;28;20037;-69
2022/06/02 01:04:17;;;;;;;15.43;10.57;;;9.20;99.90;;;;;;5014345;28;20060;-69
2022/06/02 01:06:49;;;;;;;12.68;10.88;;;9.10;99.90;;;;;;5014231;28;20056;-69
2022/06/02 01:09:50;;;;;;;12.07;9.88;;;9.00;99.90;;;;;;5013480;28;20403;-69
2022/06/02 01:12:34;;;;;;;13.35;9.90;;;9.00;99.90;;;;;;5032034;28;20402;-69
2022/06/02 01:15:41;;;;;;;14.23;10.80;;;9.10;99.90;;;;;;5014219;28;20049;-69
2022/06/02 01:18:15;;;;;;;12.38;10.32;;;9.10;99.90;;;;;;5032033;28;20545;-69
2022/06/02 01:20:53;;;;;;;14.43;10.27;;;8.90;99.90;;;;;;5029864;28;20549;-69
2022/06/02 01:23:28;;;;;;;12.20;9.82;;;;;;;;;;5031929;28;20487;-69
2022/06/02 01:26:06;;;;;;;14.20;10.35;;;9.10;99.90;;;;;;5031951;28;20041;-69
2022/06/02 01:28:50;;;;;;;11.88;9.88;;;9.00;99.90;;;;;;5014162;28;20042;-69
2022/06/02 01:31:26;;;;;;;12.45;10.30;;;8.90;99.90;;;;;;5013702;28;20113;-69
2022/06/02 01:34:35;;;;;;;12.35;10.85;;;8.90;99.90;;;;;;5031947;28;20042;-69
2022/06/02 01:37:01;;;;;;;12.55;10.13;;;;;;;;;;4982266;28;20045;-69
2022/06/02 01:39:48;;;;;;;13.43;10.60;;;9.00;99.90;;;;;;5013258;28;20037;-69
2022/06/02 01:42:32;;;;;;;11.35;9.55;;;8.90;99.90;;;;;;5031524;28;20507;-69
2022/06/02 01:45:39;;;;;;;11.57;10.25;;;8.90;99.90;;;;;;5031777;28;20501;-69
2022/06/02 01:48:41;;;;;;;10.70;9.27;;;8.80;99.90;;;;;;5031253;28;20403;-69
2022/06/02 01:51:20;;;;;;;11.48;10.00;;;8.80;99.90;;;;;;4961892;28;20086;-68
2022/06/02 01:54:04;;;;;;;14.20;10.02;;;8.80;99.90;;;;;;5035635;28;20037;-68
2022/06/02 01:56:49;;;;;;;10.98;9.35;;;8.80;99.90;;;;;;5035415;28;20045;-67
2022/06/02 01:59:38;;;;;;;10.77;9.48;;;8.80;99.90;;;;;;5017233;28;20053;-68
2022/06/02 02:02:14;;;;;;;10.98;9.05;;;8.80;99.90;;;;;;5034828;28;20045;-68
2022/06/02 02:05:01;;;;;;;12.30;9.98;;;8.60;99.90;;;;;;5017580;28;20048;-68
2022/06/02 02:07:49;;;;;;;11.48;9.20;;;8.60;99.90;;;;;;5035473;28;20147;-69
2022/06/02 02:10:29;;;;;;;14.77;9.63;;;8.70;99.90;;;;;;5034617;28;20122;-69
2022/06/02 02:13:11;;;;;;;11.57;8.68;;;8.70;99.90;;;;;;5035203;28;20044;-68
2022/06/02 02:16:03;;;;;;;9.93;8.48;;;8.50;99.90;;;;;;5017388;28;20041;-68
2022/06/02 02:18:53;;;;;;;11.20;9.00;;;8.60;99.90;;;;;;5034874;28;20049;-68
2022/06/02 02:21:35;;;;;;;10.60;9.02;;;8.70;99.90;;;;;;5016999;28;20076;-69
2022/06/02 02:24:03;;;;;;;9.88;8.73;;;8.50;99.90;;;;;;5017246;28;20132;-68
2022/06/02 02:26:34;;;;;;;11.15;8.85;;;;;;;;;;5017513;28;20559;-68
2022/06/02 02:29:18;;;;;;;10.60;8.68;;;8.50;99.90;;;;;;5034477;28;20076;-67
2022/06/02 02:31:56;;;;;;;10.38;8.93;;;8.40;99.90;;;;;;5017087;28;20120;-69
2022/06/02 02:34:40;;;;;;;11.65;8.77;;;8.50;99.90;;;;;;5000961;28;20509;-68
2022/06/02 02:37:08;;;;;;;;;;;8.50;99.90;;;;;;5001070;28;20038;-68
2022/06/02 02:39:59;;;;;;;10.05;7.85;;;8.50;99.90;;;;;;5000133;28;19921;-68
2022/06/02 02:42:33;;;;;;;12.35;8.60;;;8.50;99.90;;;;;;5016932;28;20045;-68
2022/06/02 02:45:29;;;;;;;12.35;8.85;;;8.40;99.90;;;;;;5016758;28;20033;-69
2022/06/02 02:48:07;;;;;;;10.40;8.13;;;8.40;99.90;;;;;;5034365;28;20045;-68
2022/06/02 02:50:53;;;;;;;9.45;7.95;;;8.50;99.90;;;;;;5033679;28;20095;-69
2022/06/02 02:53:31;;;;;;;9.50;8.32;;;8.50;99.90;;;;;;5034670;28;20044;-68
2022/06/02 02:56:01;;;;;;;10.50;8.43;;;;;;;;;;5000558;28;20041;-68
2022/06/02 02:58:40;;;;;;;10.55;8.40;;;8.40;99.90;;;;;;5016602;28;20073;-68
2022/06/02 03:01:47;;;;;;;8.73;7.30;;;8.50;99.90;;;;;;5015787;28;20120;-68
2022/06/02 03:04:32;;;;;;;8.10;7.13;;;8.40;99.90;;;;;;5033921;28;20446;-68
2022/06/02 03:06:59;;;;;;;10.30;8.25;;;8.50;99.90;;;;;;5034334;28;20402;-68
2022/06/02 03:09:34;;;;;;;8.35;7.45;;;8.50;99.90;;;;;;5015490;28;20049;-69
2022/06/02 03:12:08;;;;;;;8.30;7.50;;;8.30;99.90;;;;;;5034385;28;20041;-68
2022/06/02 03:14:58;;;;;;;10.30;7.82;;;8.40;99.90;;;;;;5034164;28;20060;-68
2022/06/02 03:17:45;;;;;;;9.63;6.90;;;8.40;99.90;;;;;;5033984;28;20045;-69
2022/06/02 03:20:41;;;;;;;8.90;7.93;;;8.30;99.90;;;;;;5033443;28;20052;-68
2022/06/02 03:23:21;;;;;;;7.93;6.97;;;8.30;99.90;;;;;;5016293;28;20087;-68
2022/06/02 03:25:52;;;;;;;9.77;7.35;;;8.10;99.90;;;;;;5033928;28;20464;-69
2022/06/02 03:28:24;;;;;;;10.32;7.75;;;8.20;99.90;;;;;;5033916;28;20043;-68
2022/06/02 03:31:10;;;;;;;9.05;8.07;;;8.20;99.90;;;;;;5033243;28;20095;-68
2022/06/02 03:34:01;;;;;;;8.82;7.43;;;8.20;99.90;;;;;;5016197;28;20555;-68
2022/06/02 03:36:40;;;;;;;10.70;7.13;;;8.20;99.90;;;;;;5016053;28;20037;-68
2022/06/02 03:39:08;;;;;;;8.98;6.82;;;8.20;99.90;;;;;;5033348;28;20088;-68
2022/06/02 03:42:08;;;;;;;13.70;7.93;;;8.30;99.90;;;;;;5016204;28;20075;-69
2022/06/02 03:44:34;;;;;;;9.70;7.47;;;8.40;99.90;;;;;;5033725;28;20399;-68
2022/06/02 03:47:23;;;;;;;8.45;7.25;;;8.20;99.90;;;;;;5033693;28;20140;-68
2022/06/02 03:49:53;;;;;;;12.43;9.20;;;;;;;;;;5014846;28;20525;-68
2022/06/02 03:52:37;;;;;;;10.07;7.43;;;8.60;99.90;;;;;;5016028;28;20411;-68
2022/06/02 03:55:11;;;;;;;9.40;8.02;;;8.70;99.90;;;;;;5033343;28;20052;-68
2022/06/02 03:57:48;;;;;;;10.55;8.00;;;8.80;99.90;;;;;;4999178;28;20049;-68
2022/06/02 04:00:26;;;;;;;15.82;9.82;;;8.80;99.90;;;;;;5014960;28;20041;-68
2022/06/02 04:03:35;;;;;;;15.13;8.30;;;9.00;99.90;;;;;;5033584;28;20099;-69
2022/06/02 04:06:15;;;;;;;11.80;7.80;;;9.00;99.90;;;;;;5025580;28;20049;-69
2022/06/02 04:09:15;;;;;;;8.95;7.60;;;9.00;99.90;;;;;;5015322;28;20049;-70
2022/06/02 04:14:37;;;;;;;10.55;7.53;;;8.90;99.90;;;;;;5014892;28;20037;-68
2022/06/02 04:17:12;;;;;;;9.02;7.43;;;8.90;99.90;;;;;;5032936;28;20037;-68
2022/06/02 04:23:08;;;;;;;12.02;8.90;;;9.00;99.90;;;;;;5014908;28;20049;-68
2022/06/02 04:26:16;;;;;;;9.70;6.50;;;9.30;99.90;;;;;;5015078;28;20117;-70
2022/06/02 04:28:53;;;;;;;12.25;8.00;;;9.30;99.90;;;;;;5006731;28;20052;-68
2022/06/02 04:31:56;;;;;;;14.00;7.75;;;9.30;99.90;;;;;;5014720;28;20408;-68
2022/06/02 04:34:54;;;;;;;12.98;7.72;;;9.40;99.90;;;;;;5032631;28;20038;-68
2022/06/02 04:37:50;;;;;;;14.68;7.65;;;9.50;99.90;;;;;;5014774;28;20068;-69
2022/06/02 04:40:36;;;;;;;8.73;7.28;;;9.50;99.90;;;;;;5031845;28;20077;-68
2022/06/02 04:43:25;;;;;;;10.85;7.13;;;9.60;99.90;;;;;;4998209;28;20045;-68
2022/06/02 04:46:06;;;;;;;8.25;6.97;;;9.60;99.90;;;;;;4998639;28;20404;-68
2022/06/02 04:48:41;;;;;;;8.77;6.30;;;9.60;99.90;;;;;;4997952;28;20116;-68
2022/06/02 04:51:29;;;;;;;10.40;6.85;;;9.90;99.90;;;;;;5014014;28;20091;-68
2022/06/02 04:54:13;;;;;;;10.35;7.00;;;9.70;99.90;;;;;;5014756;28;20045;-68
2022/06/02 04:56:51;;;;;;;8.70;6.53;;;9.90;99.90;;;;;;5014443;28;20128;-68
2022/06/02 04:59:48;;;;;;;9.48;6.68;;;10.10;99.90;;;;;;5013706;28;20041;-69
2022/06/02 05:02:28;;;;;;;8.52;6.18;;;10.10;99.90;;;;;;5004005;28;20057;-67
2022/06/02 05:05:21;;;;;;;6.78;5.90;;;10.10;99.90;;;;;;5014689;28;20104;-68
2022/06/02 05:07:58;;;;;;;8.52;5.50;;;10.40;99.90;;;;;;5014116;28;20073;-68
2022/06/02 05:10:41;;;;;;;10.20;6.70;;;10.50;99.90;;;;;;5031516;28;20049;-69
2022/06/02 05:13:29;;;;;;;8.32;6.20;;;10.60;99.90;;;;;;5032041;28;20083;-68
2022/06/02 05:16:29;;;;;;;9.38;5.80;;;10.70;99.90;;;;;;5014141;28;20049;-68
2022/06/02 05:19:18;;;;;;;8.43;5.47;;;10.70;99.90;;;;;;4997191;28;20090;-69
2022/06/02 05:21:46;;;;;;;9.02;5.50;;;10.90;99.90;;;;;;5014362;28;20399;-69
2022/06/02 05:24:18;;;;;;;8.90;5.07;;;10.60;99.90;;;;;;5032225;28;20033;-69
2022/06/02 05:27:01;;;;;;;7.03;5.50;;;11.00;99.90;;;;;;4997010;28;20499;-69
2022/06/02 05:30:15;;;;;;;4.85;4.35;;;11.00;99.90;;;;;;5031079;28;20068;-69
2022/06/02 05:33:06;;;;;;;7.07;5.65;;;11.10;99.90;;;;;;5010497;28;20041;-69
2022/06/02 05:35:56;;;;;;;6.05;5.30;;;11.30;99.90;;;;;;5014028;28;20392;-69
2022/06/02 05:38:36;;;;;;;6.80;5.38;;;11.40;99.90;;;;;;5013801;28;20096;-70
2022/06/02 05:41:16;;;;;;;7.70;4.90;;;11.20;99.90;;;;;;5030892;28;20042;-71
2022/06/02 05:44:02;;;;;;;8.57;5.30;;;11.40;99.90;;;;;;5031455;28;20044;-70
2022/06/02 05:46:38;;;;;;;5.35;4.85;;;11.50;99.90;;;;;;4991678;28;20165;-70
2022/06/02 05:49:23;;;;;;;8.20;4.60;;;11.50;99.90;;;;;;5015213;28;20068;-70
2022/06/02 05:52:01;;;;;;;5.35;4.55;;;11.60;99.90;;;;;;5023303;28;20040;-70
2022/06/02 05:54:30;;;;;;;7.82;4.30;;;11.80;99.90;;;;;;5021873;28;20518;-72
2022/06/02 05:57:04;;;;;;;4.15;3.80;;;11.80;99.90;;;;;;5023823;28;20060;-70
2022/06/02 06:00:01;;;;;;;4.03;3.33;;;11.90;99.90;;;;;;5003124;28;20056;-70
2022/06/02 06:02:56;;;;;;;3.78;3.10;;;11.90;99.90;;;;;;5020988;28;20039;-70
2022/06/02 06:05:42;;;;;;;4.28;2.88;;;12.20;99.90;;;;;;5036487;28;20029;-71
2022/06/02 06:08:33;;;;;;;7.10;3.00;;;12.20;99.90;;;;;;5016310;28;20072;-71
2022/06/02 06:11:40;;;;;;;3.72;3.10;;;12.20;99.90;;;;;;5038511;28;20094;-71
2022/06/02 06:14:40;;;;;;;5.50;2.83;;;12.50;99.90;;;;;;5027152;28;20052;-72
2022/06/02 06:17:39;;;;;;;2.80;2.22;;;12.20;99.90;;;;;;5037928;28;20124;-71
2022/06/02 06:20:14;;;;;;;3.40;2.10;;;12.50;99.90;;;;;;5015177;28;20053;-72
2022/06/02 06:23:06;;;;;;;4.10;2.40;;;12.50;99.90;;;;;;5026710;28;20562;-71
2022/06/02 06:25:59;;;;;;;3.40;2.20;;;12.60;99.90;;;;;;5015390;28;20103;-72
2022/06/02 06:28:32;;;;;;;4.63;3.30;;;12.70;99.90;;;;;;5027735;28;20083;-70
2022/06/02 06:31:16;;;;;;;2.80;2.33;;;12.80;99.90;;;;;;4998462;28;20068;-70
2022/06/02 06:34:02;;;;;;;4.38;2.60;;;12.80;99.90;;;;;;5011931;28;20052;-70
2022/06/02 06:36:48;;;;;;;3.03;2.17;;;13.00;99.90;;;;;;5036017;28;20033;-71
2022/06/02 06:39:36;;;;;;;4.07;2.10;;;13.00;99.90;;;;;;5029483;28;20038;-72
2022/06/02 06:42:17;;;;;;;2.88;2.22;;;13.30;99.90;;;;;;4998174;28;20107;-72
2022/06/02 06:44:56;;;;;;;2.28;2.08;;;13.30;99.90;;;;;;5002595;28;20086;-71
2022/06/02 06:47:42;;;;;;;5.85;2.60;;;13.20;99.90;;;;;;5022532;28;20129;-72
2022/06/02 06:50:21;;;;;;;2.67;2.20;;;13.10;99.90;;;;;;4987981;28;20065;-71
2022/06/02 06:53:02;;;;;;;2.55;1.95;;;13.30;99.90;;;;;;5001102;28;20536;-70
2022/06/02 06:55:39;;;;;;;3.63;2.28;;;13.40;99.90;;;;;;5007410;28;20437;-70
2022/06/02 06:58:36;;;;;;;2.90;2.15;;;13.20;99.90;;;;;;5025808;28;20042;-72
2022/06/02 07:01:07;;;;;;;4.15;2.20;;;13.20;99.90;;;;;;5007110;28;20181;-71
2022/06/02 07:04:03;;;;;;;2.97;1.70;;;13.20;99.90;;;;;;5025693;28;20037;-70
2022/06/02 07:06:51;;;;;;;4.05;2.20;;;13.20;99.90;;;;;;4997537;28;20125;-70
2022/06/02 07:09:23;;;;;;;4.57;2.50;;;13.30;99.90;;;;;;5013588;28;20073;-70
2022/06/02 07:15:16;;;;;;;3.67;2.25;;;13.20;99.90;;;;;;5030298;28;20053;-71
2022/06/02 07:17:54;;;;;;;2.00;1.73;;;13.30;99.90;;;;;;5029749;28;20073;-71
2022/06/02 07:20:30;;;;;;;1.65;1.55;;;13.60;99.90;;;;;;5012093;28;20065;-70
2022/06/02 07:23:40;;;;;;;1.80;1.48;;;13.70;99.90;;;;;;5013365;28;20051;-72
2022/06/02 07:26:35;;;;;;;2.95;1.52;;;14.20;99.90;;;;;;5014367;28;20087;-71
2022/06/02 07:29:16;;;;;;;5.75;1.60;;;14.20;99.90;;;;;;4995137;28;20377;-72
2022/06/02 07:32:02;;;;;;;3.70;1.83;;;14.00;99.90;;;;;;5032816;28;20049;-71
2022/06/02 07:34:56;;;;;;;3.90;1.70;;;13.70;99.90;;;;;;5007839;28;20037;-71
2022/06/02 07:37:31;;;;;;;3.33;1.70;;;13.90;99.90;;;;;;5001383;28;20457;-70
2022/06/02 07:40:12;;;;;;;1.80;1.52;;;14.20;99.90;;;;;;5019481;28;20045;-71
2022/06/02 07:43:14;;;;;;;2.47;1.40;;;14.50;99.90;;;;;;5023164;28;20634;-71
2022/06/02 07:46:12;;;;;;;2.28;1.35;;;14.80;99.90;;;;;;5001922;28;20407;-72
2022/06/02 07:49:01;;;;;;;4.72;1.83;;;14.60;99.90;;;;;;5001982;28;20048;-70
2022/06/02 07:51:49;;;;;;;2.90;1.70;;;14.80;99.90;;;;;;5013608;28;20088;-69
2022/06/02 07:54:27;;;;;;;6.97;1.83;;;14.90;99.90;;;;;;5014841;28;20131;-70
2022/06/02 07:57:14;;;;;;;4.82;1.63;;;15.00;99.90;;;;;;4997782;28;20124;-69
2022/06/02 08:00:03;;;;;;;4.45;1.45;;;15.10;99.90;;;;;;5013031;28;20046;-71
2022/06/02 08:03:08;;;;;;;2.22;1.10;;;15.00;99.90;;;;;;5015154;28;20037;-70
2022/06/02 08:05:59;;;;;;;4.88;2.00;;;14.80;99.90;;;;;;5015029;28;20120;-70
2022/06/02 08:08:38;;;;;;;2.90;1.60;;;14.90;99.90;;;;;;5014984;28;20034;-70
2022/06/02 08:11:07;;;;;;;4.88;2.13;;;15.00;99.90;;;;;;4998219;28;20076;-70
2022/06/02 08:13:45;;;;;;;3.50;1.40;;;15.40;99.90;;;;;;5014745;28;20099;-70
2022/06/02 08:16:13;;;;;;;4.38;2.63;;;15.80;99.90;;;;;;5032992;28;20041;-70
2022/06/02 08:18:50;;;;;;;3.13;1.40;;;15.90;99.90;;;;;;5032533;28;20049;-70
2022/06/02 08:21:29;;;;;;;3.80;2.13;;;15.10;99.90;;;;;;5014520;28;20052;-71
2022/06/02 08:24:36;;;;;;;3.50;2.10;;;14.80;99.90;;;;;;5015003;28;20050;-70
2022/06/02 08:27:20;;;;;;;2.25;1.67;;;15.10;99.90;;;;;;4986340;28;20533;-70
2022/06/02 08:30:19;;;;;;;7.38;1.85;;;15.60;99.90;;;;;;5010850;28;20048;-70
2022/06/02 08:33:21;;;;;;;3.70;1.80;;;15.90;99.90;;;;;;4992529;28;20057;-71
2022/06/02 08:35:53;;;;;;;6.45;2.08;;;16.00;99.90;;;;;;5011228;28;20052;-70
2022/06/02 08:38:28;;;;;;;3.55;1.65;;;16.00;99.90;;;;;;4994907;28;20502;-70
2022/06/02 08:41:31;;;;;;;3.53;1.90;;;15.60;99.90;;;;;;5012039;28;20038;-70
2022/06/02 08:44:31;;;;;;;2.53;1.30;;;15.40;99.90;;;;;;5011377;28;20124;-70
2022/06/02 08:47:15;;;;;;;5.80;1.98;;;15.40;99.90;;;;;;4984226;28;20046;-71
2022/06/02 08:50:20;;;;;;;5.03;1.67;;;15.40;99.90;;;;;;4997085;28;20044;-70
2022/06/02 08:53:16;;;;;;;3.95;1.80;;;16.00;99.90;;;;;;5014292;28;20041;-71
2022/06/02 08:55:48;;;;;;;5.40;2.10;;;15.60;99.90;;;;;;5014223;28;20041;-70
2022/06/02 08:58:33;;;;;;;3.60;1.40;;;15.50;99.90;;;;;;5014250;28;20041;-70
2022/06/02 09:01:21;;;;;;;2.13;1.40;;;16.50;99.90;;;;;;5012044;28;20056;-70
2022/06/02 09:04:08;;;;;;;3.70;1.75;;;15.90;99.90;;;;;;5013209;28;20052;-70
2022/06/02 09:07:02;;;;;;;2.63;1.55;;;16.10;99.90;;;;;;5031810;28;20470;-70
2022/06/02 09:09:38;;;;;;;3.05;1.73;;;16.50;99.90;;;;;;5013101;28;20045;-70
2022/06/02 09:12:25;;;;;;;2.25;1.40;;;16.70;99.90;;;;;;5014285;28;20075;-71
2022/06/02 09:15:12;;;;;;;2.47;1.63;;;16.50;99.90;;;;;;4997748;28;20153;-70
2022/06/02 09:17:51;;;;;;;3.15;1.83;;;16.20;99.90;;;;;;4997256;28;20048;-71
2022/06/02 09:20:23;;;;;;;3.95;1.60;;;15.90;99.90;;;;;;4997114;28;20449;-70
2022/06/02 09:23:22;;;;;;;2.55;1.40;;;16.00;99.90;;;;;;5031766;28;20038;-70
2022/06/02 09:26:06;;;;;;;3.30;1.60;;;16.40;99.90;;;;;;4998216;28;20118;-71
2022/06/02 09:28:43;;;;;;;1.48;1.35;;;16.80;99.90;;;;;;5032007;28;20112;-71
2022/06/02 09:31:27;;;;;;;2.63;1.50;;;17.00;99.90;;;;;;5012798;28;20439;-70
2022/06/02 09:33:56;;;;;;;2.97;1.48;;;16.70;99.90;;;;;;5013871;28;20499;-70
2022/06/02 09:36:46;;;;;;;2.05;1.50;;;16.80;99.90;;;;;;5013817;28;20518;-70
2022/06/02 09:39:30;;;;;;;3.90;1.45;;;16.70;99.90;;;;;;5012813;28;20041;-70
2022/06/02 09:42:28;;;;;;;3.42;1.20;;;16.60;99.90;;;;;;5031538;28;20041;-69
2022/06/02 09:45:02;;;;;;;2.72;1.38;;;16.50;99.90;;;;;;5013577;28;20087;-70
2022/06/02 09:47:58;;;;;;;4.65;1.55;;;16.50;99.90;;;;;;4997246;28;20059;-68
2022/06/02 09:50:33;;;;;;;4.28;1.17;;;16.50;99.90;;;;;;5030739;28;20051;-70
2022/06/02 09:53:09;;;;;;;4.00;1.75;;;16.80;99.90;;;;;;5013603;28;20127;-69
2022/06/02 09:56:09;;;;;;;3.80;1.65;;;17.10;99.90;;;;;;5031113;28;20420;-70
2022/06/02 09:59:01;;;;;;;1.65;1.50;;;17.20;99.90;;;;;;5008930;28;20062;-70
2022/06/02 10:01:44;;;;;;;4.93;1.48;;;17.50;99.90;;;;;;5010817;28;20504;-70
2022/06/02 10:04:20;;;;;;;1.85;1.40;;;17.80;99.90;;;;;;5013526;28;20246;-70
2022/06/02 10:06:58;;;;;;;3.00;1.50;;;17.30;99.90;;;;;;5013721;28;20537;-70
2022/06/02 10:09:45;;;;;;;3.33;1.98;;;17.20;99.90;;;;;;5013053;28;20420;-70
2022/06/02 10:15:43;;;;;;;4.05;1.60;;;16.80;99.90;;;;;;5035108;28;20098;-69
2022/06/02 10:18:39;;;;;;;6.32;1.40;;;17.50;99.90;;;;;;5035193;28;20034;-70
2022/06/02 10:21:30;;;;;;;3.65;2.10;;;17.50;99.90;;;;;;5034400;28;20479;-70
2022/06/02 10:24:14;;;;;;;3.28;1.60;;;17.60;99.90;;;;;;4996288;28;20119;-69
2022/06/02 10:26:49;;;;;;;4.88;2.08;;;17.30;99.90;;;;;;5045481;28;20041;-69
2022/06/02 10:29:58;;;;;;;1.85;1.25;;;17.20;99.90;;;;;;5026334;28;20486;-70
2022/06/02 10:32:49;;;;;;;2.15;1.48;;;17.20;99.90;;;;;;5016184;28;20053;-70
2022/06/02 10:35:46;;;;;;;4.70;2.00;;;16.80;99.90;;;;;;5016111;28;20041;-70
2022/06/02 10:38:35;;;;;;;1.75;1.30;;;16.90;99.90;;;;;;5018747;28;20092;-70
2022/06/02 10:41:31;;;;;;;3.97;1.55;;;16.90;99.90;;;;;;5013900;28;20044;-70
2022/06/02 10:44:14;;;;;;;3.05;1.60;;;17.00;99.90;;;;;;5024836;28;20036;-69
2022/06/02 10:46:55;;;;;;;4.43;2.25;;;17.10;99.90;;;;;;5028131;28;20565;-69
2022/06/02 10:49:38;;;;;;;2.03;1.40;;;17.10;99.90;;;;;;5021561;28;20176;-70
2022/06/02 10:52:35;;;;;;;2.33;1.50;;;17.00;99.90;;;;;;5010395;28;20037;-69
2022/06/02 10:55:15;;;;;;;4.35;1.77;;;17.00;99.90;;;;;;5010763;28;20517;-70
2022/06/02 10:58:18;;;;;;;2.60;1.60;;;16.90;99.90;;;;;;5028234;28;20514;-69
2022/06/02 11:00:53;;;;;;;2.23;1.70;;;17.50;99.90;;;;;;5012365;28;20125;-69
2022/06/02 11:03:58;;;;;;;2.85;1.50;;;17.50;99.90;;;;;;5011424;28;20041;-70
2022/06/02 11:06:51;;;;;;;2.88;1.65;;;17.70;99.90;;;;;;5014240;28;20682;-69
2022/06/02 11:09:54;;;;;;;3.75;1.73;;;17.30;99.90;;;;;;5027986;28;20037;-70
2022/06/02 11:13:03;;;;;;;3.65;1.55;;;17.40;99.90;;;;;;5012411;28;20085;-69
2022/06/02 11:15:53;;;;;;;2.22;1.70;;;17.30;99.90;;;;;;5013531;28;20140;-69
2022/06/02 11:18:56;;;;;;;5.35;1.90;;;17.60;99.90;;;;;;5015900;28;20557;-69
2022/06/02 11:21:33;;;;;;;2.78;1.40;;;18.00;99.90;;;;;;5033238;28;20514;-70
2022/06/02 11:24:10;;;;;;;1.17;1.02;;;18.00;99.90;;;;;;5032182;28;20041;-70
2022/06/02 11:27:21;;;;;;;3.38;1.40;;;18.40;99.90;;;;;;5015904;28;20041;-70
2022/06/02 11:30:11;;;;;;;2.55;1.10;;;18.70;99.90;;;;;;5014998;28;20041;-69
2022/06/02 11:33:18;;;;;;;1.23;1.13;;;18.70;99.90;;;;;;5015816;28;20507;-69
2022/06/02 11:36:10;;;;;;;2.67;1.42;;;18.40;99.90;;;;;;5027643;28;20358;-68
2022/06/02 11:38:54;;;;;;;2.53;1.23;;;18.70;99.90;;;;;;5015918;28;20077;-69
2022/06/02 11:41:43;;;;;;;2.33;1.30;;;18.90;99.90;;;;;;5015510;28;20049;-70
2022/06/02 11:44:29;;;;;;;1.73;1.10;;;18.80;99.90;;;;;;5033423;28;20037;-70
2022/06/02 11:47:10;;;;;;;3.42;1.33;;;18.90;99.90;;;;;;5015447;28;20045;-70
2022/06/02 11:49:57;;;;;;;4.28;2.08;;;19.10;99.90;;;;;;4998128;28;20051;-70
2022/06/02 11:52:34;;;;;;;1.90;1.20;;;19.30;99.90;;;;;;5014761;28;20086;-69
2022/06/02 11:55:11;;;;;;;2.45;1.15;;;19.90;99.90;;;;;;5031161;28;20041;-69
2022/06/02 11:57:56;;;;;;;5.95;3.15;;;19.40;99.60;;;;;;5003625;28;20030;-70
2022/06/02 12:00:50;;;;;;;2.83;1.67;;;19.50;99.80;;;;;;5012605;28;20045;-70
2022/06/02 12:03:42;;;;;;;3.30;1.80;;;20.50;99.90;;;;;;5005019;28;20038;-70
2022/06/02 12:06:27;;;;;;;2.28;1.40;;;19.40;99.90;;;;;;5033007;28;20037;-70
2022/06/02 12:09:16;;;;;;;2.45;1.33;;;19.40;99.90;;;;;;5030840;28;20040;-70
2022/06/02 12:12:13;;;;;;;8.13;2.92;;;21.80;99.90;;;;;;4998894;28;20037;-70
2022/06/02 12:15:03;;;;;;;4.45;3.05;;;19.70;99.90;;;;;;5032984;28;20041;-70
2022/06/02 12:17:44;;;;;;;3.88;1.60;;;19.00;99.90;;;;;;5032586;28;20046;-70
2022/06/02 12:20:19;;;;;;;3.15;1.48;;;18.90;99.90;;;;;;5014437;28;20045;-70
2022/06/02 12:23:05;;;;;;;1.60;1.40;;;18.80;99.90;;;;;;5032777;28;20067;-70
2022/06/02 12:25:58;;;;;;;3.88;1.83;;;18.80;99.90;;;;;;5031193;28;20156;-70
2022/06/02 12:28:36;;;;;;;;;;;19.20;99.90;;;;;;5032756;28;20041;-70
2022/06/02 12:31:41;;;;;;;3.35;1.40;;;19.70;99.90;;;;;;5014183;28;19923;-71
2022/06/02 12:34:23;;;;;;;4.72;2.67;;;19.10;99.80;;;;;;5014478;28;20044;-70
2022/06/02 12:37:19;;;;;;;2.15;1.40;;;19.40;99.90;;;;;;5031789;28;20052;-70
2022/06/02 12:39:54;;;;;;;3.35;2.22;;;18.90;99.00;;;;;;5030852;28;20076;-70
2022/06/02 12:42:38;;;;;;;3.25;1.33;;;19.10;99.80;;;;;;5013907;28;20037;-70
2022/06/02 12:45:12;;;;;;;3.50;1.80;;;19.40;99.50;;;;;;5014352;28;20511;-70
2022/06/02 12:47:53;;;;;;;3.38;1.65;;;19.90;99.70;;;;;;5032103;28;20041;-70
2022/06/02 12:50:30;;;;;;;1.58;1.40;;;19.80;98.50;;;;;;4998703;28;20072;-70
2022/06/02 12:53:10;;;;;;;2.40;1.25;;;19.20;98.30;;;;;;5032166;28;20049;-70
2022/06/02 12:55:39;;;;;;;1.67;1.25;;;19.10;99.70;;;;;;5012724;28;20049;-70
2022/06/02 12:58:19;;;;;;;3.10;1.50;;;19.20;99.80;;;;;;5014045;28;20400;-70
2022/06/02 13:01:01;;;;;;;2.22;1.20;;;19.50;99.10;;;;;;5013598;28;20561;-70
2022/06/02 13:03:45;;;;;;;3.85;1.27;;;19.40;98.80;;;;;;5031678;28;20044;-70
2022/06/02 13:06:29;;;;;;;2.05;1.33;;;20.00;99.20;;;;;;4997652;28;20037;-70
2022/06/02 13:09:14;;;;;;;1.80;1.52;;;19.50;99.00;;;;;;5013572;28;20041;-69
2022/06/02 13:12:01;;;;;;;5.80;1.95;;;19.50;99.50;;;;;;5031713;28;20033;-70
2022/06/02 13:14:57;;;;;;;1.98;1.40;;;20.00;99.50;;;;;;5032033;28;20480;-70
2022/06/02 13:18:02;;;;;;;3.00;1.70;;;20.30;99.70;;;;;;5029799;28;20434;-70
2022/06/02 13:20:52;;;;;;;3.38;1.38;;;19.80;98.70;;;;;;5031038;28;20056;-70
2022/06/02 13:23:46;;;;;;;2.42;1.52;;;20.10;98.60;;;;;;5031714;28;20127;-69
2022/06/02 13:26:16;;;;;;;3.20;1.70;;;19.80;99.00;;;;;;5031480;28;20096;-70
2022/06/02 13:29:03;;;;;;;4.32;1.70;;;19.30;99.90;;;;;;5013608;28;20041;-70
2022/06/02 13:32:06;;;;;;;3.30;1.50;;;19.30;99.40;;;;;;5029924;28;20704;-69
2022/06/02 13:34:41;;;;;;;4.60;1.40;;;19.30;99.90;;;;;;5013626;28;20095;-70
2022/06/02 13:37:21;;;;;;;4.35;1.33;;;19.50;99.90;;;;;;5031403;28;20052;-69
2022/06/02 13:40:23;;;;;;;1.92;1.45;;;18.90;99.90;;;;;;5012921;28;20100;-70
2022/06/02 13:42:54;;;;;;;1.20;1.10;;;18.30;99.90;;;;;;5014280;28;20047;-70
2022/06/02 13:45:46;;;;;;;2.05;1.40;;;17.90;99.90;;;;;;5031494;28;20047;-70
2022/06/02 13:48:39;;;;;;;1.92;1.60;;;18.90;99.90;;;;;;5017138;28;20041;-70
2022/06/02 13:52:04;;;;;;;1.83;1.38;;;19.10;99.50;;;;;;5034668;28;20683;-70
2022/06/02 13:58:13;;;;;;;2.47;1.27;;;19.30;99.70;;;;;;5017231;28;20045;-70
2022/06/02 14:00:45;;;;;;;3.15;1.70;;;20.10;99.90;;;;;;5034721;28;20049;-70
2022/06/02 14:03:48;;;;;;;3.70;1.60;;;19.90;99.80;;;;;;5001017;28;20179;-70
2022/06/02 14:06:21;;;;;;;3.45;1.30;;;20.10;99.90;;;;;;5017162;28;20091;-71
2022/06/02 14:08:57;;;;;;;3.17;1.10;;;20.30;99.90;;;;;;5035459;28;20033;-70
2022/06/02 14:11:37;;;;;;;3.78;1.60;;;20.50;99.80;;;;;;5022909;28;20033;-70
2022/06/02 14:14:21;;;;;;;3.30;1.52;;;20.60;99.90;;;;;;5034442;28;20037;-70
2022/06/02 14:16:57;;;;;;;2.13;1.20;;;20.30;99.70;;;;;;5017349;28;20450;-70
2022/06/02 14:19:59;;;;;;;2.13;1.38;;;20.30;99.10;;;;;;5016437;28;20041;-70
2022/06/02 14:22:48;;;;;;;2.00;1.27;;;19.90;99.20;;;;;;5000704;28;20044;-70
2022/06/02 14:25:39;;;;;;;1.77;1.13;;;20.20;99.20;;;;;;5017112;28;20045;-70
2022/06/02 14:28:31;;;;;;;2.10;1.25;;;20.20;99.10;;;;;;5001218;28;20296;-70
2022/06/02 14:31:35;;;;;;;4.07;1.27;;;20.00;99.70;;;;;;5016200;28;20041;-70
2022/06/02 14:34:08;;;;;;;2.80;1.38;;;20.00;99.10;;;;;;5017078;28;20380;-71
2022/06/02 14:36:47;;;;;;;1.75;1.20;;;20.00;99.50;;;;;;5016940;28;20041;-70
2022/06/02 14:39:22;;;;;;;3.63;1.48;;;20.40;99.70;;;;;;5033872;28;20180;-71
2022/06/02 14:42:17;;;;;;;3.38;1.55;;;19.80;98.40;;;;;;5017037;28;20037;-70